東京国際空港の過去48時間の天気

東京国際空港 (Tokyo/Intl)

現在時刻: 7/22 02:27 JST (7/21 17:27 UTC) 以下の時間は現地時間です。

過去48時間のMETAR気象情報
時間 風向 風速(m/s) 視程 気温(℃) 湿度(%) 気圧(hPa) 天気現象
22 02:00 南南西 3 10km以上 28 84 1009
22 01:30 南南西 3 10km以上 29 79 1009
22 01:00 南南西 3 10km以上 28 84 1009
22 00:30 南南西 4 10km以上 28 84 1009
22 00:00 南南西 4 10km以上 29 74 1009
21 23:30 南南西 5 10km以上 29 74 1009
21 23:00 南南西 5 10km以上 29 79 1009
21 22:30 6 10km以上 29 79 1009
21 22:00 6 10km以上 29 74 1010
21 21:30 南南西 6 10km以上 29 79 1010
21 21:00 南南西 6 10km以上 29 74 1010
21 20:30 南南西 6 10km以上 29 74 1009
21 20:00 南南西 7 10km以上 29 74 1009
21 19:30 南南西 7 10km以上 29 79 1009
21 19:00 8 10km以上 30 70 1009
21 18:30 8 10km以上 30 75 1009
21 18:00 8 10km以上 30 75 1009
21 17:30 7 10km以上 31 70 1009
21 17:00 8 10km以上 30 75 1009
21 16:30 9 10km以上 31 70 1009
21 16:19 9 10km以上 32 67 1009
21 16:00 9 10km以上 31 70 1009
21 15:30 8 10km以上 32 71 1009
21 15:00 9 10km以上 32 67 1009
21 14:30 8 10km以上 32 67 1009
21 14:00 9 10km以上 33 63 1010
21 13:30 9 10km以上 33 63 1010
21 13:00 10 10km以上 32 71 1010
21 12:30 9 10km以上 33 67 1010
21 12:00 9 10km以上 32 67 1010
21 11:30 8 10km以上 32 67 1011
21 11:00 9 10km以上 33 63 1011
21 10:30 8 10km以上 33 63 1011
21 10:00 8 10km以上 33 63 1011
21 09:30 7 10km以上 32 67 1011
21 09:00 6 10km以上 32 67 1011
21 08:30 5 10km以上 32 67 1011
21 08:00 南南西 3 10km以上 32 67 1011
21 07:30 南南西 4 10km以上 31 70 1011
21 07:00 南南西 5 10km以上 30 70 1011
21 06:30 南南西 4 10km以上 29 74 1011
21 06:00 南西 4 10km以上 29 74 1011
21 05:30 西南西 4 10km以上 28 79 1011
21 05:00 南西 4 10km以上 28 79 1011
21 04:30 南南西 4 10km以上 28 79 1011
21 04:00 南南西 4 10km以上 28 79 1010
21 03:30 南南西 4 10km以上 28 79 1010
21 03:00 南南西 5 10km以上 28 79 1010
21 02:30 南南西 6 10km以上 28 79 1010
21 02:00 南南西 6 10km以上 28 79 1010
21 01:30 6 10km以上 28 79 1010
21 01:00 南南西 6 10km以上 28 79 1010
21 00:30 南南西 6 10km以上 28 84 1011
21 00:00 南南西 7 10km以上 28 84 1011
20 23:30 南南西 8 10km以上 28 84 1011
20 23:00 南南西 7 10km以上 28 84 1011
20 22:30 9 10km以上 28 84 1011
20 22:00 9 10km以上 28 84 1011
20 21:30 8 10km以上 28 84 1011
20 21:00 9 10km以上 28 84 1011
20 20:30 8 10km以上 29 79 1011
20 20:18 8 10km以上 28 84 1011
20 20:00 8 10km以上 29 79 1011
20 19:30 7 10km以上 28 84 1011
20 19:00 8 10km以上 29 84 1011
20 18:41 8 10km以上 29 79 1011
20 18:30 8 10km以上 29 84 1011
20 18:10 8 10km以上 29 84 1011
20 18:00 9 10km以上 29 84 1010
20 17:30 11 10km以上 30 79 1010
20 17:00 11 10km以上 30 79 1010
20 16:30 11 10km以上 31 75 1010
20 16:00 11 10km以上 31 70 1010
20 15:30 11 10km以上 31 75 1010
20 15:00 11 10km以上 31 75 1010
20 14:30 10 10km以上 32 71 1010
20 14:00 10 10km以上 32 71 1010
20 13:30 10 10km以上 32 71 1010
20 13:00 10 10km以上 32 71 1010
20 12:30 10 10km以上 32 71 1011
20 12:00 9 10km以上 32 71 1011
20 11:30 9 10km以上 32 71 1011
20 11:00 10 10km以上 32 71 1011
20 10:37 10 10km以上 32 71 1011
20 10:30 10 10km以上 32 71 1011
20 10:00 9 10km以上 32 67 1011
20 09:30 8 10km以上 32 71 1011
20 09:00 8 10km以上 31 75 1011
20 08:30 8 10km以上 31 75 1011
20 08:00 7 10km以上 30 79 1011
20 07:30 7 10km以上 30 75 1011
20 07:00 南南西 6 10km以上 30 75 1011
20 06:30 6 10km以上 29 79 1011
20 06:00 6 10km以上 28 84 1011
20 05:30 7 10km以上 28 84 1011
20 05:00 南南西 6 10km以上 28 84 1011
20 04:30 南南西 5 10km以上 27 89 1011
20 04:00 南南西 6 10km以上 27 89 1010
20 03:30 8 10km以上 28 84 1010
20 03:00 8 10km以上 28 84 1010
20 02:30 7 10km以上 28 84 1010
RJTT 211700Z 21005KT 9999 FEW030 BKN/// 28/25 Q1009 NOSIG RMK 1CU030 A2980
RJTT 211630Z 21005KT 170V230 9999 FEW030 BKN/// 29/25 Q1009 BECMG 25005KT RMK 1CU030 A2979
RJTT 211600Z 20006KT 9999 FEW030 BKN/// 28/25 Q1009 NOSIG RMK 1CU030 A2980
RJTT 211530Z 21008KT 9999 FEW030 BKN/// 28/25 Q1009 NOSIG RMK 1CU030 A2980
RJTT 211500Z 20008KT 9999 FEW030 BKN/// 29/24 Q1009 NOSIG RMK 1CU030 A2981
RJTT 211430Z 20010KT 9999 FEW030 BKN/// 29/24 Q1009 NOSIG RMK 1CU030 A2982
RJTT 211400Z 20010KT 9999 FEW030 BKN/// 29/25 Q1009 NOSIG RMK 1CU030 A2982
RJTT 211330Z 19011KT 9999 FEW030 BKN/// 29/25 Q1009 NOSIG RMK 1CU030 A2982
RJTT 211300Z 19011KT 9999 FEW030 BKN/// 29/24 Q1010 NOSIG RMK 1CU030 A2982
RJTT 211230Z 20011KT 9999 FEW030 BKN/// 29/25 Q1010 NOSIG RMK 1CU030 A2982
RJTT 211200Z 20012KT 9999 FEW030 BKN/// 29/24 Q1010 NOSIG RMK 1CU030 A2983
RJTT 211130Z 20012KT 9999 FEW030 BKN/// 29/24 Q1009 NOSIG RMK 1CU030 A2982
RJTT 211100Z 20014KT 9999 FEW030 BKN/// 29/24 Q1009 NOSIG
RJTT 211030Z 20014KT 9999 FEW030 BKN/// 29/25 Q1009 NOSIG RMK 1CU030 A2982
RJTT 211000Z 19016KT 9999 FEW030 BKN/// 30/24 Q1009 NOSIG RMK 1CU030 A2981
RJTT 210930Z 19015KT 9999 FEW030 BKN/// 30/25 Q1009 NOSIG
RJTT 210900Z 19016KT 9999 FEW030 BKN/// 30/25 Q1009 NOSIG RMK 1CU030 A2982
RJTT 210830Z 19014KT 9999 FEW030 BKN/// 31/25 Q1009 NOSIG
RJTT 210800Z 19015KT 9999 FEW030 BKN/// 30/25 Q1009 NOSIG RMK 1CU030 A2980
RJTT 210730Z 19017KT 9999 FEW030 BKN/// 31/25 Q1009 NOSIG
RJTT 210719Z 19017G27KT 9999 FEW030 BKN/// 32/25 Q1009 RMK 1CU030 A2981
RJTT 210700Z 19018KT 9999 FEW030 BKN/// 31/25 Q1009 NOSIG RMK 1CU030 A2982
RJTT 210630Z 18016KT 9999 FEW030 BKN/// 32/26 Q1009 NOSIG
RJTT 210600Z 18017KT 9999 FEW030 BKN/// 32/25 Q1009 NOSIG RMK 1CU030 A2981
RJTT 210530Z 19016KT 9999 FEW030 BKN/// 32/25 Q1009 NOSIG
RJTT 210500Z 18017KT 9999 FEW030 BKN/// 33/25 Q1010 NOSIG RMK 1CU030 A2982
RJTT 210430Z 18017KT 9999 FEW030 BKN/// 33/25 Q1010 NOSIG
RJTT 210400Z 18019KT 9999 FEW030 BKN/// 32/26 Q1010 NOSIG RMK 1CU030 A2983
RJTT 210330Z 18017KT 9999 FEW030 BKN/// 33/26 Q1010 NOSIG
RJTT 210300Z 18017KT 9999 FEW030 BKN/// 32/25 Q1010 NOSIG RMK 1CU030 A2985
RJTT 210230Z 18016KT 9999 FEW030 SCT/// 32/25 Q1011 NOSIG RMK 1CU030 A2985
RJTT 210200Z 18017KT 9999 FEW025 SCT/// 33/25 Q1011 NOSIG RMK 1CU025 A2985
RJTT 210130Z 18015KT 9999 FEW020 SCT/// 33/25 Q1011 NOSIG RMK 1CU020 A2987
RJTT 210100Z 17015KT 9999 FEW020 33/25 Q1011 NOSIG RMK 1CU020 A2987
RJTT 210030Z 17014KT 9999 FEW020 SCT/// 32/25 Q1011 NOSIG RMK 1CU020 A2987
RJTT 210000Z 17012KT 9999 FEW020 SCT/// 32/25 Q1011 NOSIG RMK 1CU020 A2987
RJTT 202330Z 19009KT 160V240 9999 FEW020 32/25 Q1011 NOSIG RMK 1CU020 A2987
RJTT 202300Z 20006KT 150V250 9999 FEW020 32/25 Q1011 NOSIG RMK 1CU020 A2987
RJTT 202230Z 20008KT 170V240 9999 FEW015 31/25 Q1011 NOSIG RMK 1CU015 A2987
RJTT 202200Z 20010KT 9999 FEW015 30/24 Q1011 NOSIG RMK 1CU015 A2987
RJTT 202130Z 20008KT 9999 FEW015 29/24 Q1011 NOSIG RMK 1CU015 A2986
RJTT 202100Z 23008KT 9999 FEW015 29/24 Q1011 NOSIG RMK 1CU015 A2986
RJTT 202030Z 25008KT 9999 FEW015 28/24 Q1011 BECMG 22008KT RMK 1CU015 A2986
RJTT 202000Z 23007KT 9999 FEW015 28/24 Q1011 NOSIG RMK 1CU015 A2986
RJTT 201930Z 21007KT 9999 FEW015 28/24 Q1011 NOSIG RMK 1CU015 A2985
RJTT 201900Z 21008KT 9999 FEW015 28/24 Q1010 NOSIG RMK 1CU015 A2984
RJTT 201830Z 20007KT 9999 FEW015 28/24 Q1010 NOSIG RMK 1CU015 A2984
RJTT 201800Z 21010KT 9999 FEW020 28/24 Q1010 NOSIG RMK 1CU020 A2984
RJTT 201730Z 20011KT 9999 FEW020 28/24 Q1010 NOSIG RMK 1CU020 A2984
RJTT 201700Z 20011KT 9999 FEW020 28/24 Q1010 NOSIG RMK 1CU020 A2984
RJTT 201630Z 19012KT 9999 FEW020 28/24 Q1010 NOSIG RMK 1CU020 A2984
RJTT 201600Z 20011KT 9999 FEW020 28/24 Q1010 NOSIG RMK 1CU020 A2985
RJTT 201530Z 20011KT 9999 FEW020 28/25 Q1011 NOSIG RMK 1CU020 A2986
RJTT 201500Z 20014KT 9999 FEW020 28/25 Q1011 NOSIG RMK 1CU020 A2986
RJTT 201430Z 20015KT 9999 FEW010 28/25 Q1011 NOSIG RMK 1CU010 A2987
RJTT 201400Z 20013KT 9999 FEW010 28/25 Q1011 NOSIG RMK 1CU010 A2987
RJTT 201330Z 19018KT 9999 FEW010 28/25 Q1011 NOSIG RMK 1CU010 A2988
RJTT 201300Z 19018KT 9999 FEW010 28/25 Q1011 NOSIG RMK 1CU010 A2988
RJTT 201230Z 19015KT 9999 FEW010 28/25 Q1011 NOSIG RMK 1CU010 A2988
RJTT 201200Z 19017KT 9999 FEW010 28/25 Q1011 NOSIG RMK 1CU010 A2988
RJTT 201130Z 19015G25KT 9999 FEW015 29/25 Q1011 NOSIG RMK 1CU015 A2987
RJTT 201118Z 19015G25KT 9999 FEW015 28/25 Q1011 RMK 1CU015 A2987
RJTT 201100Z 18015KT 9999 FEW015 29/25 Q1011 NOSIG RMK 1CU015 A2987
RJTT 201030Z 19013KT 9999 FEW015 28/25 Q1011 NOSIG RMK 2CU015 A2987
RJTT 201000Z 18015KT 9999 FEW010 29/26 Q1011 TEMPO 20018G28KT RMK 1CU010 A2986
RJTT 200941Z 19015G26KT 9999 FEW010 29/25 Q1011 RMK 1CU010 A2986
RJTT 200930Z 19015KT 160V220 9999 FEW010 29/26 Q1011 TEMPO 20018G28KT
RJTT 200910Z 19015G25KT 9999 FEW015 29/26 Q1011 RMK 1CU015 A2985
RJTT 200900Z 19017KT 9999 FEW015 29/26 Q1010 TEMPO 20020G30KT RMK 1CU015 A2985
RJTT 200830Z 18021KT 9999 FEW015 30/26 Q1010 TEMPO 19022G32KT
RJTT 200800Z 18022KT 9999 FEW015 30/26 Q1010 TEMPO 19022G32KT RMK 1CU015 A2983
RJTT 200730Z 18022KT 9999 FEW015 31/26 Q1010 TEMPO 19022G32KT RMK 1CU015 A2984
RJTT 200700Z 18022KT 9999 FEW015 31/25 Q1010 TEMPO 19022G32KT RMK 1CU015 A2984
RJTT 200630Z 18022KT 9999 FEW020 FEW035CB 31/26 Q1010 TEMPO 19022G32KT
RJTT 200600Z 18021KT 9999 FEW020 FEW035CB 31/26 Q1010 TEMPO 19022G32KT RMK 1CU020 1CB035 A2984 CB NW
RJTT 200530Z 18019KT 9999 FEW020 FEW035CB 32/26 Q1010 TEMPO 19022G32KT
RJTT 200500Z 18020KT 9999 FEW020 32/26 Q1010 TEMPO 19022G32KT RMK 1CU020 A2984
RJTT 200430Z 18019KT 9999 FEW020 32/26 Q1010 TEMPO 19022G32KT
RJTT 200400Z 18020KT 9999 FEW020 32/26 Q1010 TEMPO 19022G32KT
RJTT 200330Z 17019KT 9999 FEW020 32/26 Q1011 TEMPO 19022G32KT
RJTT 200300Z 17018KT 9999 FEW020 32/26 Q1011 TEMPO 19020G30KT RMK 1CU020 A2985
RJTT 200230Z 17017KT 9999 FEW020 32/26 Q1011 NOSIG RMK 1CU020 A2986
RJTT 200200Z 18019KT 9999 FEW020 32/26 Q1011 NOSIG RMK 1CU020 A2986
RJTT 200137Z 18019G29KT 9999 FEW020 32/26 Q1011 RMK 1CU020 A2986
RJTT 200130Z 18019KT 9999 FEW020 32/26 Q1011 NOSIG RMK 1CU020 A2986
RJTT 200100Z 18017KT 9999 FEW020 32/25 Q1011 NOSIG RMK 1CU020 A2987
RJTT 200030Z 18015KT 9999 FEW020 32/26 Q1011 NOSIG RMK 1CU020 A2987
RJTT 200000Z 18015KT 9999 FEW020 31/26 Q1011 NOSIG RMK 1CU020 A2987
RJTT 192330Z 18015KT 9999 FEW020 31/26 Q1011 NOSIG RMK 1CU020 A2988
RJTT 192300Z 18013KT 9999 FEW020 30/26 Q1011 NOSIG RMK 1CU020 A2988
RJTT 192230Z 19013KT 9999 FEW015 30/25 Q1011 NOSIG RMK 1CU015 A2988
RJTT 192200Z 20011KT 9999 FEW010 30/25 Q1011 NOSIG RMK 1ST010 A2987
RJTT 192130Z 19012KT 9999 FEW009 29/25 Q1011 NOSIG RMK 1ST009 A2987
RJTT 192100Z 19012KT 9999 FEW008 28/25 Q1011 NOSIG RMK 1ST008 A2987
RJTT 192030Z 19014KT 9999 FEW007 28/25 Q1011 NOSIG RMK 1ST007 A2987
RJTT 192000Z 20011KT 9999 FEW010 28/25 Q1011 NOSIG RMK 1ST010 A2986
RJTT 191930Z 20010KT 9999 FEW010 SCT/// 27/25 Q1011 NOSIG RMK 1ST010 A2985
RJTT 191900Z 20011KT 9999 FEW009 27/25 Q1010 NOSIG RMK 1ST009 A2985
RJTT 191830Z 19015KT 9999 FEW009 28/25 Q1010 NOSIG RMK 1ST009 A2984
RJTT 191800Z 19015KT 9999 FEW009 28/25 Q1010 NOSIG RMK 1ST009 A2983
RJTT 191730Z 19013KT 9999 FEW009 28/25 Q1010 NOSIG RMK 1ST009 A2983